aviador You're here:

KHFF Decoded Metar

HOFFMAN/MACKALL in NC, USA
Report Time2017-08-06 07:56:00
UTC Time2017-08-22 15:05:21
Flight Rules Old
Wind070° at 04 kt
W.Decomp.*RWY 04: 3.2 kt HW 2.4 kt RCW
RWY 11: 3.3 kt HW 2.2 kt LCW
RWY 16: 0.4 kt HW 4 kt LCW
W.Rank070° ranks 28
Current wind is below 070° avg. (5.0)
Visibility9999 m
Phenomena:Vicinity thunderstorm
Clouds:Broken 085 Hf
Expected CloudBase > 4,000 ft AGL from Temp-Dew spread
Ceiling8,500 ft
Temp24°C (ISA +10)
Dew Point14°C (54% RH)
AAT23.9°C
QNH1017 hPa
Density Alt1,588 ft
Elevation377 ft
Report Wrong Elevation
Raw Report
KHFF 060756Z AUTO 07004KT 10SM VCTS BKN085 24/14 A3003 RMK AO2
SLP181 T02400142 $=

Extra information for KHFF:More info

Metar Taf Metar & Taf Last 4 Metars F.Rules Stats Wind Profile Meteogram Temp Stats Airport Information Weather charts Add Link Nearby VenuesMetar ALERT Operation Metar Decoded Social comments

AIRNAV info for KHFF